sensor_id;sensor_type;location;lat;lon;timestamp;temperature;humidity
8487;DHT22;4280;50.534;8.708;2024-01-16T00:01:15;0.70;1.00
8487;DHT22;4280;50.534;8.708;2024-01-16T00:03:43;0.70;1.00
8487;DHT22;4280;50.534;8.708;2024-01-16T00:06:09;0.70;1.00
8487;DHT22;4280;50.534;8.708;2024-01-16T00:08:35;0.80;1.00
8487;DHT22;4280;50.534;8.708;2024-01-16T00:11:04;0.70;1.00
8487;DHT22;4280;50.534;8.708;2024-01-16T00:13:31;0.70;1.00
8487;DHT22;4280;50.534;8.708;2024-01-16T00:15:58;0.70;1.00
8487;DHT22;4280;50.534;8.708;2024-01-16T00:18:24;0.70;1.00
8487;DHT22;4280;50.534;8.708;2024-01-16T00:20:49;0.70;1.00
8487;DHT22;4280;50.534;8.708;2024-01-16T00:23:15;0.70;1.00
8487;DHT22;4280;50.534;8.708;2024-01-16T00:25:41;0.70;1.00
8487;DHT22;4280;50.534;8.708;2024-01-16T00:28:07;0.70;1.00
8487;DHT22;4280;50.534;8.708;2024-01-16T00:30:32;0.70;1.00
8487;DHT22;4280;50.534;8.708;2024-01-16T00:32:59;0.70;1.00
8487;DHT22;4280;50.534;8.708;2024-01-16T00:35:25;0.70;1.00
8487;DHT22;4280;50.534;8.708;2024-01-16T00:37:50;0.70;1.00
8487;DHT22;4280;50.534;8.708;2024-01-16T00:40:16;0.60;1.00
8487;DHT22;4280;50.534;8.708;2024-01-16T00:42:42;0.70;1.00
8487;DHT22;4280;50.534;8.708;2024-01-16T00:45:08;0.70;1.00
8487;DHT22;4280;50.534;8.708;2024-01-16T00:47:34;0.70;1.00
8487;DHT22;4280;50.534;8.708;2024-01-16T00:49:59;0.70;1.00
8487;DHT22;4280;50.534;8.708;2024-01-16T00:52:26;0.60;1.00
8487;DHT22;4280;50.534;8.708;2024-01-16T00:54:55;0.60;1.00
8487;DHT22;4280;50.534;8.708;2024-01-16T00:57:24;0.50;1.00
8487;DHT22;4280;50.534;8.708;2024-01-16T00:59:50;0.50;1.00
8487;DHT22;4280;50.534;8.708;2024-01-16T01:02:16;0.50;1.00
8487;DHT22;4280;50.534;8.708;2024-01-16T01:04:42;0.50;1.00
8487;DHT22;4280;50.534;8.708;2024-01-16T01:07:08;0.50;1.00
8487;DHT22;4280;50.534;8.708;2024-01-16T01:09:34;0.60;1.00
8487;DHT22;4280;50.534;8.708;2024-01-16T01:12:00;0.60;1.00
8487;DHT22;4280;50.534;8.708;2024-01-16T01:14:25;0.60;1.00
8487;DHT22;4280;50.534;8.708;2024-01-16T01:16:54;0.60;1.00
8487;DHT22;4280;50.534;8.708;2024-01-16T01:19:20;0.70;1.00
8487;DHT22;4280;50.534;8.708;2024-01-16T01:21:45;0.60;1.00
8487;DHT22;4280;50.534;8.708;2024-01-16T01:24:11;0.60;1.00
8487;DHT22;4280;50.534;8.708;2024-01-16T01:26:37;0.60;1.00
8487;DHT22;4280;50.534;8.708;2024-01-16T01:29:02;0.60;1.00
8487;DHT22;4280;50.534;8.708;2024-01-16T01:31:28;0.60;1.00
8487;DHT22;4280;50.534;8.708;2024-01-16T01:33:54;0.50;1.00
8487;DHT22;4280;50.534;8.708;2024-01-16T01:36:19;0.50;1.00
8487;DHT22;4280;50.534;8.708;2024-01-16T01:38:45;0.50;1.00
8487;DHT22;4280;50.534;8.708;2024-01-16T01:41:11;0.50;1.00
8487;DHT22;4280;50.534;8.708;2024-01-16T01:43:40;0.60;1.00
8487;DHT22;4280;50.534;8.708;2024-01-16T01:46:16;0.60;1.00
8487;DHT22;4280;50.534;8.708;2024-01-16T01:48:44;0.60;1.00
8487;DHT22;4280;50.534;8.708;2024-01-16T01:51:12;0.60;1.00
8487;DHT22;4280;50.534;8.708;2024-01-16T01:53:41;0.50;1.00
8487;DHT22;4280;50.534;8.708;2024-01-16T01:56:08;0.60;1.00
8487;DHT22;4280;50.534;8.708;2024-01-16T01:58:37;0.60;1.00
8487;DHT22;4280;50.534;8.708;2024-01-16T02:01:06;0.60;1.00
8487;DHT22;4280;50.534;8.708;2024-01-16T02:03:45;0.60;1.00
8487;DHT22;4280;50.534;8.708;2024-01-16T02:06:12;0.60;1.00
8487;DHT22;4280;50.534;8.708;2024-01-16T02:08:39;0.60;1.00
8487;DHT22;4280;50.534;8.708;2024-01-16T02:11:05;0.60;1.00
8487;DHT22;4280;50.534;8.708;2024-01-16T02:13:31;0.60;1.00
8487;DHT22;4280;50.534;8.708;2024-01-16T02:15:57;0.60;1.00
8487;DHT22;4280;50.534;8.708;2024-01-16T02:18:23;0.70;1.00
8487;DHT22;4280;50.534;8.708;2024-01-16T02:20:49;0.70;1.00
8487;DHT22;4280;50.534;8.708;2024-01-16T02:23:15;0.70;1.00
8487;DHT22;4280;50.534;8.708;2024-01-16T02:25:50;0.60;1.00
8487;DHT22;4280;50.534;8.708;2024-01-16T02:28:16;0.60;1.00
8487;DHT22;4280;50.534;8.708;2024-01-16T02:30:42;0.70;1.00
8487;DHT22;4280;50.534;8.708;2024-01-16T02:33:08;0.60;1.00
8487;DHT22;4280;50.534;8.708;2024-01-16T02:35:33;0.60;1.00
8487;DHT22;4280;50.534;8.708;2024-01-16T02:37:59;0.70;1.00
8487;DHT22;4280;50.534;8.708;2024-01-16T02:40:26;0.70;1.00
8487;DHT22;4280;50.534;8.708;2024-01-16T02:42:52;0.70;1.00
8487;DHT22;4280;50.534;8.708;2024-01-16T02:45:18;0.70;1.00
8487;DHT22;4280;50.534;8.708;2024-01-16T02:47:43;0.70;1.00
8487;DHT22;4280;50.534;8.708;2024-01-16T02:50:09;0.60;1.00
8487;DHT22;4280;50.534;8.708;2024-01-16T02:52:35;0.70;1.00
8487;DHT22;4280;50.534;8.708;2024-01-16T02:55:01;0.60;1.00
8487;DHT22;4280;50.534;8.708;2024-01-16T02:57:27;0.60;1.00
8487;DHT22;4280;50.534;8.708;2024-01-16T02:59:52;0.60;1.00
8487;DHT22;4280;50.534;8.708;2024-01-16T03:02:18;0.60;1.00
8487;DHT22;4280;50.534;8.708;2024-01-16T03:04:44;0.60;1.00
8487;DHT22;4280;50.534;8.708;2024-01-16T03:07:09;0.60;1.00
8487;DHT22;4280;50.534;8.708;2024-01-16T03:09:35;0.60;1.00
8487;DHT22;4280;50.534;8.708;2024-01-16T03:12:02;0.60;1.00
8487;DHT22;4280;50.534;8.708;2024-01-16T03:14:27;0.50;1.00
8487;DHT22;4280;50.534;8.708;2024-01-16T03:16:53;0.50;1.00
8487;DHT22;4280;50.534;8.708;2024-01-16T03:19:19;0.40;1.00
8487;DHT22;4280;50.534;8.708;2024-01-16T03:21:44;0.40;1.00
8487;DHT22;4280;50.534;8.708;2024-01-16T03:24:10;0.40;1.00
8487;DHT22;4280;50.534;8.708;2024-01-16T03:26:36;0.40;1.00
8487;DHT22;4280;50.534;8.708;2024-01-16T03:29:06;0.40;1.00
8487;DHT22;4280;50.534;8.708;2024-01-16T03:31:31;0.40;1.00
8487;DHT22;4280;50.534;8.708;2024-01-16T03:33:57;0.40;1.00
8487;DHT22;4280;50.534;8.708;2024-01-16T03:36:22;0.40;1.00
8487;DHT22;4280;50.534;8.708;2024-01-16T03:38:48;0.50;1.00
8487;DHT22;4280;50.534;8.708;2024-01-16T03:41:14;0.50;1.00
8487;DHT22;4280;50.534;8.708;2024-01-16T03:43:40;0.50;1.00
8487;DHT22;4280;50.534;8.708;2024-01-16T03:46:06;0.50;1.00
8487;DHT22;4280;50.534;8.708;2024-01-16T03:48:32;0.50;1.00
8487;DHT22;4280;50.534;8.708;2024-01-16T03:50:57;0.50;1.00
8487;DHT22;4280;50.534;8.708;2024-01-16T03:53:23;0.50;1.00
8487;DHT22;4280;50.534;8.708;2024-01-16T03:55:49;0.50;1.00
8487;DHT22;4280;50.534;8.708;2024-01-16T03:58:15;0.50;1.00
8487;DHT22;4280;50.534;8.708;2024-01-16T04:00:41;0.50;1.00
8487;DHT22;4280;50.534;8.708;2024-01-16T04:03:07;0.60;1.00
8487;DHT22;4280;50.534;8.708;2024-01-16T04:05:33;0.50;1.00
8487;DHT22;4280;50.534;8.708;2024-01-16T04:07:59;0.50;1.00
8487;DHT22;4280;50.534;8.708;2024-01-16T04:10:25;0.50;1.00
8487;DHT22;4280;50.534;8.708;2024-01-16T04:12:51;0.50;1.00
8487;DHT22;4280;50.534;8.708;2024-01-16T04:15:17;0.50;1.00
8487;DHT22;4280;50.534;8.708;2024-01-16T04:17:42;0.50;1.00
8487;DHT22;4280;50.534;8.708;2024-01-16T04:20:09;0.50;1.00
8487;DHT22;4280;50.534;8.708;2024-01-16T04:22:35;0.50;1.00
8487;DHT22;4280;50.534;8.708;2024-01-16T04:25:01;0.50;1.00
8487;DHT22;4280;50.534;8.708;2024-01-16T04:27:30;0.50;1.00
8487;DHT22;4280;50.534;8.708;2024-01-16T04:29:57;0.50;1.00
8487;DHT22;4280;50.534;8.708;2024-01-16T04:32:22;0.50;1.00
8487;DHT22;4280;50.534;8.708;2024-01-16T04:34:48;0.50;1.00
8487;DHT22;4280;50.534;8.708;2024-01-16T04:37:13;0.60;1.00
8487;DHT22;4280;50.534;8.708;2024-01-16T04:39:39;0.60;1.00
8487;DHT22;4280;50.534;8.708;2024-01-16T04:42:05;0.60;1.00
8487;DHT22;4280;50.534;8.708;2024-01-16T04:44:30;0.60;1.00
8487;DHT22;4280;50.534;8.708;2024-01-16T04:46:56;0.60;1.00
8487;DHT22;4280;50.534;8.708;2024-01-16T04:49:22;0.60;1.00
8487;DHT22;4280;50.534;8.708;2024-01-16T04:51:47;0.60;1.00
8487;DHT22;4280;50.534;8.708;2024-01-16T04:54:13;0.60;1.00
8487;DHT22;4280;50.534;8.708;2024-01-16T04:56:39;0.60;1.00
8487;DHT22;4280;50.534;8.708;2024-01-16T04:59:04;0.60;1.00
8487;DHT22;4280;50.534;8.708;2024-01-16T05:01:31;0.60;1.00
8487;DHT22;4280;50.534;8.708;2024-01-16T05:03:56;0.60;1.00
8487;DHT22;4280;50.534;8.708;2024-01-16T05:06:22;0.60;1.00
8487;DHT22;4280;50.534;8.708;2024-01-16T05:08:48;0.50;1.00
8487;DHT22;4280;50.534;8.708;2024-01-16T05:11:14;0.50;1.00
8487;DHT22;4280;50.534;8.708;2024-01-16T05:13:39;0.60;1.00
8487;DHT22;4280;50.534;8.708;2024-01-16T05:16:05;0.50;1.00
8487;DHT22;4280;50.534;8.708;2024-01-16T05:18:31;0.50;1.00
8487;DHT22;4280;50.534;8.708;2024-01-16T05:21:00;0.60;1.00
8487;DHT22;4280;50.534;8.708;2024-01-16T05:23:27;0.50;1.00
8487;DHT22;4280;50.534;8.708;2024-01-16T05:25:53;0.50;1.00
8487;DHT22;4280;50.534;8.708;2024-01-16T05:28:19;0.50;1.00
8487;DHT22;4280;50.534;8.708;2024-01-16T05:30:44;0.60;1.00
8487;DHT22;4280;50.534;8.708;2024-01-16T05:33:10;0.50;1.00
8487;DHT22;4280;50.534;8.708;2024-01-16T05:35:36;0.50;1.00
8487;DHT22;4280;50.534;8.708;2024-01-16T05:38:01;0.50;1.00
8487;DHT22;4280;50.534;8.708;2024-01-16T05:40:28;0.50;1.00
8487;DHT22;4280;50.534;8.708;2024-01-16T05:42:54;0.50;1.00
8487;DHT22;4280;50.534;8.708;2024-01-16T05:45:21;0.50;1.00
8487;DHT22;4280;50.534;8.708;2024-01-16T05:47:46;0.50;1.00
8487;DHT22;4280;50.534;8.708;2024-01-16T05:50:12;0.50;1.00
8487;DHT22;4280;50.534;8.708;2024-01-16T05:52:38;0.50;1.00
8487;DHT22;4280;50.534;8.708;2024-01-16T05:55:04;0.50;1.00
8487;DHT22;4280;50.534;8.708;2024-01-16T05:57:30;0.50;1.00
8487;DHT22;4280;50.534;8.708;2024-01-16T05:59:59;0.50;1.00
8487;DHT22;4280;50.534;8.708;2024-01-16T06:02:28;0.50;1.00
8487;DHT22;4280;50.534;8.708;2024-01-16T06:04:54;0.40;1.00
8487;DHT22;4280;50.534;8.708;2024-01-16T06:07:19;0.50;1.00
8487;DHT22;4280;50.534;8.708;2024-01-16T06:09:45;0.40;1.00
8487;DHT22;4280;50.534;8.708;2024-01-16T06:12:11;0.40;1.00
8487;DHT22;4280;50.534;8.708;2024-01-16T06:14:37;0.40;1.00
8487;DHT22;4280;50.534;8.708;2024-01-16T06:17:04;0.40;1.00
8487;DHT22;4280;50.534;8.708;2024-01-16T06:19:31;0.40;1.00
8487;DHT22;4280;50.534;8.708;2024-01-16T06:21:58;0.40;1.00
8487;DHT22;4280;50.534;8.708;2024-01-16T06:24:25;0.40;1.00
8487;DHT22;4280;50.534;8.708;2024-01-16T06:26:50;0.40;1.00
8487;DHT22;4280;50.534;8.708;2024-01-16T06:29:16;0.40;1.00
8487;DHT22;4280;50.534;8.708;2024-01-16T06:31:42;0.40;1.00
8487;DHT22;4280;50.534;8.708;2024-01-16T06:34:07;0.40;1.00
8487;DHT22;4280;50.534;8.708;2024-01-16T06:36:34;0.40;1.00
8487;DHT22;4280;50.534;8.708;2024-01-16T06:39:00;0.40;1.00
8487;DHT22;4280;50.534;8.708;2024-01-16T06:41:25;0.40;1.00
8487;DHT22;4280;50.534;8.708;2024-01-16T06:43:51;0.40;1.00
8487;DHT22;4280;50.534;8.708;2024-01-16T06:46:17;0.30;1.00
8487;DHT22;4280;50.534;8.708;2024-01-16T06:48:42;0.30;1.00
8487;DHT22;4280;50.534;8.708;2024-01-16T06:51:08;0.30;1.00
8487;DHT22;4280;50.534;8.708;2024-01-16T06:53:35;0.30;1.00
8487;DHT22;4280;50.534;8.708;2024-01-16T06:58:39;0.30;1.00
8487;DHT22;4280;50.534;8.708;2024-01-16T07:01:05;0.20;1.00
8487;DHT22;4280;50.534;8.708;2024-01-16T07:03:30;0.20;1.00
8487;DHT22;4280;50.534;8.708;2024-01-16T07:05:56;0.20;1.00
8487;DHT22;4280;50.534;8.708;2024-01-16T07:08:22;0.20;1.00
8487;DHT22;4280;50.534;8.708;2024-01-16T07:10:47;0.10;1.00
8487;DHT22;4280;50.534;8.708;2024-01-16T07:13:13;0.10;1.00
8487;DHT22;4280;50.534;8.708;2024-01-16T07:15:39;0.10;1.00
8487;DHT22;4280;50.534;8.708;2024-01-16T07:18:05;0.10;1.00
8487;DHT22;4280;50.534;8.708;2024-01-16T07:20:31;0.10;1.00
8487;DHT22;4280;50.534;8.708;2024-01-16T07:22:56;0.10;1.00
8487;DHT22;4280;50.534;8.708;2024-01-16T07:25:22;0.20;1.00
8487;DHT22;4280;50.534;8.708;2024-01-16T07:27:48;0.20;1.00
8487;DHT22;4280;50.534;8.708;2024-01-16T07:30:15;0.20;1.00
8487;DHT22;4280;50.534;8.708;2024-01-16T07:32:41;0.30;1.00
8487;DHT22;4280;50.534;8.708;2024-01-16T07:35:07;0.30;1.00
8487;DHT22;4280;50.534;8.708;2024-01-16T07:37:33;0.30;1.00
8487;DHT22;4280;50.534;8.708;2024-01-16T07:39:58;0.30;1.00
8487;DHT22;4280;50.534;8.708;2024-01-16T07:42:24;0.30;1.00
8487;DHT22;4280;50.534;8.708;2024-01-16T07:44:50;0.30;1.00
8487;DHT22;4280;50.534;8.708;2024-01-16T07:47:17;0.30;1.00
8487;DHT22;4280;50.534;8.708;2024-01-16T07:49:42;0.30;1.00
8487;DHT22;4280;50.534;8.708;2024-01-16T07:52:08;0.30;1.00
8487;DHT22;4280;50.534;8.708;2024-01-16T07:54:34;0.30;1.00
8487;DHT22;4280;50.534;8.708;2024-01-16T07:57:00;0.30;1.00
8487;DHT22;4280;50.534;8.708;2024-01-16T07:59:25;0.30;1.00
8487;DHT22;4280;50.534;8.708;2024-01-16T08:01:52;0.20;1.00
8487;DHT22;4280;50.534;8.708;2024-01-16T08:04:18;0.20;1.00
8487;DHT22;4280;50.534;8.708;2024-01-16T08:06:45;0.20;1.00
8487;DHT22;4280;50.534;8.708;2024-01-16T08:09:11;0.20;1.00
8487;DHT22;4280;50.534;8.708;2024-01-16T08:11:37;0.30;1.00
8487;DHT22;4280;50.534;8.708;2024-01-16T08:14:05;0.40;1.00
8487;DHT22;4280;50.534;8.708;2024-01-16T08:16:30;0.40;1.00
8487;DHT22;4280;50.534;8.708;2024-01-16T08:18:56;0.40;1.00
8487;DHT22;4280;50.534;8.708;2024-01-16T08:21:22;0.50;1.00
8487;DHT22;4280;50.534;8.708;2024-01-16T08:23:47;0.50;1.00
8487;DHT22;4280;50.534;8.708;2024-01-16T08:26:13;0.50;1.00
8487;DHT22;4280;50.534;8.708;2024-01-16T08:28:39;0.60;1.00
8487;DHT22;4280;50.534;8.708;2024-01-16T08:31:05;0.60;1.00
8487;DHT22;4280;50.534;8.708;2024-01-16T08:33:31;0.50;1.00
8487;DHT22;4280;50.534;8.708;2024-01-16T08:35:57;0.50;1.00
8487;DHT22;4280;50.534;8.708;2024-01-16T08:38:22;0.50;1.00
8487;DHT22;4280;50.534;8.708;2024-01-16T08:40:48;0.50;1.00
8487;DHT22;4280;50.534;8.708;2024-01-16T08:43:14;0.50;1.00
8487;DHT22;4280;50.534;8.708;2024-01-16T08:45:39;0.60;1.00
8487;DHT22;4280;50.534;8.708;2024-01-16T08:48:05;0.50;1.00
8487;DHT22;4280;50.534;8.708;2024-01-16T08:50:31;0.60;1.00
8487;DHT22;4280;50.534;8.708;2024-01-16T08:52:56;0.60;1.00
8487;DHT22;4280;50.534;8.708;2024-01-16T08:55:22;0.60;1.00
8487;DHT22;4280;50.534;8.708;2024-01-16T08:57:48;0.60;1.00
8487;DHT22;4280;50.534;8.708;2024-01-16T09:00:14;0.60;1.00
8487;DHT22;4280;50.534;8.708;2024-01-16T09:02:40;0.60;1.00
8487;DHT22;4280;50.534;8.708;2024-01-16T09:05:07;0.70;1.00
8487;DHT22;4280;50.534;8.708;2024-01-16T09:07:32;0.80;1.00
8487;DHT22;4280;50.534;8.708;2024-01-16T09:09:58;0.80;1.00
8487;DHT22;4280;50.534;8.708;2024-01-16T09:12:24;0.70;1.00
8487;DHT22;4280;50.534;8.708;2024-01-16T09:14:51;0.70;1.00
8487;DHT22;4280;50.534;8.708;2024-01-16T09:17:17;0.80;1.00
8487;DHT22;4280;50.534;8.708;2024-01-16T09:19:43;0.70;1.00
8487;DHT22;4280;50.534;8.708;2024-01-16T09:22:08;0.80;1.00
8487;DHT22;4280;50.534;8.708;2024-01-16T09:24:34;0.90;1.00
8487;DHT22;4280;50.534;8.708;2024-01-16T09:27:00;0.80;1.00
8487;DHT22;4280;50.534;8.708;2024-01-16T09:29:25;0.80;1.00
8487;DHT22;4280;50.534;8.708;2024-01-16T09:31:51;0.80;1.00
8487;DHT22;4280;50.534;8.708;2024-01-16T09:34:17;0.80;1.00
8487;DHT22;4280;50.534;8.708;2024-01-16T09:36:43;0.80;1.00
8487;DHT22;4280;50.534;8.708;2024-01-16T09:39:09;0.80;1.00
8487;DHT22;4280;50.534;8.708;2024-01-16T09:41:39;0.70;1.00
8487;DHT22;4280;50.534;8.708;2024-01-16T09:44:04;0.80;1.00
8487;DHT22;4280;50.534;8.708;2024-01-16T09:46:31;0.90;1.00
8487;DHT22;4280;50.534;8.708;2024-01-16T09:48:59;0.80;1.00
8487;DHT22;4280;50.534;8.708;2024-01-16T09:51:25;0.80;1.00
8487;DHT22;4280;50.534;8.708;2024-01-16T09:53:52;0.80;1.00
8487;DHT22;4280;50.534;8.708;2024-01-16T09:56:21;0.70;1.00
8487;DHT22;4280;50.534;8.708;2024-01-16T09:58:50;0.70;1.00
8487;DHT22;4280;50.534;8.708;2024-01-16T10:01:21;0.80;1.00
8487;DHT22;4280;50.534;8.708;2024-01-16T10:03:48;0.90;1.00
8487;DHT22;4280;50.534;8.708;2024-01-16T10:06:15;0.90;1.00
8487;DHT22;4280;50.534;8.708;2024-01-16T10:08:43;0.90;1.00
8487;DHT22;4280;50.534;8.708;2024-01-16T10:11:09;1.00;1.00
8487;DHT22;4280;50.534;8.708;2024-01-16T10:13:36;1.00;1.00
8487;DHT22;4280;50.534;8.708;2024-01-16T10:16:03;1.00;1.00
8487;DHT22;4280;50.534;8.708;2024-01-16T10:18:29;1.00;1.00
8487;DHT22;4280;50.534;8.708;2024-01-16T10:20:55;1.20;1.00
8487;DHT22;4280;50.534;8.708;2024-01-16T10:26:12;1.30;1.00
8487;DHT22;4280;50.534;8.708;2024-01-16T10:28:42;1.50;1.00
8487;DHT22;4280;50.534;8.708;2024-01-16T10:31:09;1.30;1.00
8487;DHT22;4280;50.534;8.708;2024-01-16T10:33:39;1.10;1.00
8487;DHT22;4280;50.534;8.708;2024-01-16T10:36:17;1.10;1.00
8487;DHT22;4280;50.534;8.708;2024-01-16T10:38:46;1.20;1.00
8487;DHT22;4280;50.534;8.708;2024-01-16T10:41:16;1.10;1.00
8487;DHT22;4280;50.534;8.708;2024-01-16T10:43:43;1.10;1.00
8487;DHT22;4280;50.534;8.708;2024-01-16T10:46:18;1.10;1.00
8487;DHT22;4280;50.534;8.708;2024-01-16T10:48:58;1.00;1.00
8487;DHT22;4280;50.534;8.708;2024-01-16T10:51:27;1.10;1.00
8487;DHT22;4280;50.534;8.708;2024-01-16T10:54:02;1.20;1.00
8487;DHT22;4280;50.534;8.708;2024-01-16T10:56:33;1.20;1.00
8487;DHT22;4280;50.534;8.708;2024-01-16T11:02:02;1.30;1.00
8487;DHT22;4280;50.534;8.708;2024-01-16T11:04:30;1.20;1.00
8487;DHT22;4280;50.534;8.708;2024-01-16T11:06:56;1.20;1.00
8487;DHT22;4280;50.534;8.708;2024-01-16T11:09:22;1.40;1.00
8487;DHT22;4280;50.534;8.708;2024-01-16T11:11:50;1.30;1.00
8487;DHT22;4280;50.534;8.708;2024-01-16T11:14:19;1.30;1.00
8487;DHT22;4280;50.534;8.708;2024-01-16T11:16:48;1.30;1.00
8487;DHT22;4280;50.534;8.708;2024-01-16T11:19:14;1.40;1.00
8487;DHT22;4280;50.534;8.708;2024-01-16T11:21:41;1.20;1.00
8487;DHT22;4280;50.534;8.708;2024-01-16T11:24:07;1.50;1.00
8487;DHT22;4280;50.534;8.708;2024-01-16T11:26:34;1.30;1.00
8487;DHT22;4280;50.534;8.708;2024-01-16T11:31:54;1.50;1.00
8487;DHT22;4280;50.534;8.708;2024-01-16T11:37:09;1.60;1.00
8487;DHT22;4280;50.534;8.708;2024-01-16T11:39:38;1.60;1.00
8487;DHT22;4280;50.534;8.708;2024-01-16T11:42:05;1.80;1.00
8487;DHT22;4280;50.534;8.708;2024-01-16T11:44:45;1.60;1.00
8487;DHT22;4280;50.534;8.708;2024-01-16T11:47:23;1.70;1.00
8487;DHT22;4280;50.534;8.708;2024-01-16T11:50:11;1.80;1.00
8487;DHT22;4280;50.534;8.708;2024-01-16T11:52:44;1.50;1.00
8487;DHT22;4280;50.534;8.708;2024-01-16T11:55:27;1.40;1.00
8487;DHT22;4280;50.534;8.708;2024-01-16T12:00:49;1.30;1.00
8487;DHT22;4280;50.534;8.708;2024-01-16T12:03:22;1.40;1.00
8487;DHT22;4280;50.534;8.708;2024-01-16T12:05:57;1.40;1.00
8487;DHT22;4280;50.534;8.708;2024-01-16T12:08:24;1.40;1.00
8487;DHT22;4280;50.534;8.708;2024-01-16T12:10:50;1.30;1.00
8487;DHT22;4280;50.534;8.708;2024-01-16T12:13:16;1.30;1.00
8487;DHT22;4280;50.534;8.708;2024-01-16T12:15:42;1.30;1.00
8487;DHT22;4280;50.534;8.708;2024-01-16T12:18:08;1.40;1.00
8487;DHT22;4280;50.534;8.708;2024-01-16T12:20:35;1.20;1.00
8487;DHT22;4280;50.534;8.708;2024-01-16T12:23:02;1.40;1.00
8487;DHT22;4280;50.534;8.708;2024-01-16T12:25:31;1.30;1.00
8487;DHT22;4280;50.534;8.708;2024-01-16T12:28:04;1.40;1.00
8487;DHT22;4280;50.534;8.708;2024-01-16T12:30:33;1.30;1.00
8487;DHT22;4280;50.534;8.708;2024-01-16T12:33:12;1.40;1.00
8487;DHT22;4280;50.534;8.708;2024-01-16T12:35:40;1.50;1.00
8487;DHT22;4280;50.534;8.708;2024-01-16T12:38:10;1.40;1.00
8487;DHT22;4280;50.534;8.708;2024-01-16T12:40:47;1.40;1.00
8487;DHT22;4280;50.534;8.708;2024-01-16T12:43:17;1.40;1.00
8487;DHT22;4280;50.534;8.708;2024-01-16T12:45:44;1.40;1.00
8487;DHT22;4280;50.534;8.708;2024-01-16T12:48:10;1.60;1.00
8487;DHT22;4280;50.534;8.708;2024-01-16T12:50:36;1.50;1.00
8487;DHT22;4280;50.534;8.708;2024-01-16T12:53:03;1.40;1.00
8487;DHT22;4280;50.534;8.708;2024-01-16T12:55:30;1.50;1.00
8487;DHT22;4280;50.534;8.708;2024-01-16T12:58:19;1.50;1.00
8487;DHT22;4280;50.534;8.708;2024-01-16T13:00:47;1.50;1.00
8487;DHT22;4280;50.534;8.708;2024-01-16T13:03:20;1.60;1.00
8487;DHT22;4280;50.534;8.708;2024-01-16T13:05:58;1.70;1.00
8487;DHT22;4280;50.534;8.708;2024-01-16T13:08:25;1.70;1.00
8487;DHT22;4280;50.534;8.708;2024-01-16T13:11:08;2.00;1.00
8487;DHT22;4280;50.534;8.708;2024-01-16T13:13:37;2.00;1.00
8487;DHT22;4280;50.534;8.708;2024-01-16T13:16:04;1.90;1.00
8487;DHT22;4280;50.534;8.708;2024-01-16T13:18:31;2.00;1.00
8487;DHT22;4280;50.534;8.708;2024-01-16T13:20:58;2.00;1.00
8487;DHT22;4280;50.534;8.708;2024-01-16T13:23:25;1.90;1.00
8487;DHT22;4280;50.534;8.708;2024-01-16T13:25:51;1.90;1.00
8487;DHT22;4280;50.534;8.708;2024-01-16T13:28:19;1.80;1.00
8487;DHT22;4280;50.534;8.708;2024-01-16T13:30:46;1.80;1.00
8487;DHT22;4280;50.534;8.708;2024-01-16T13:33:13;1.80;1.00
8487;DHT22;4280;50.534;8.708;2024-01-16T13:35:41;1.60;1.00
8487;DHT22;4280;50.534;8.708;2024-01-16T13:38:11;1.60;1.00
8487;DHT22;4280;50.534;8.708;2024-01-16T13:40:37;1.60;1.00
8487;DHT22;4280;50.534;8.708;2024-01-16T13:43:04;1.60;1.00
8487;DHT22;4280;50.534;8.708;2024-01-16T13:45:32;1.70;1.00
8487;DHT22;4280;50.534;8.708;2024-01-16T13:47:58;1.50;1.00
8487;DHT22;4280;50.534;8.708;2024-01-16T13:50:26;1.40;1.00
8487;DHT22;4280;50.534;8.708;2024-01-16T13:52:52;1.40;1.00
8487;DHT22;4280;50.534;8.708;2024-01-16T13:55:19;1.50;1.00
8487;DHT22;4280;50.534;8.708;2024-01-16T13:57:45;1.60;1.00
8487;DHT22;4280;50.534;8.708;2024-01-16T14:00:12;1.60;1.00
8487;DHT22;4280;50.534;8.708;2024-01-16T14:02:44;1.60;1.00
8487;DHT22;4280;50.534;8.708;2024-01-16T14:05:11;1.60;1.00
8487;DHT22;4280;50.534;8.708;2024-01-16T14:07:41;1.50;1.00
8487;DHT22;4280;50.534;8.708;2024-01-16T14:10:16;1.50;1.00
8487;DHT22;4280;50.534;8.708;2024-01-16T14:12:44;1.50;1.00
8487;DHT22;4280;50.534;8.708;2024-01-16T14:15:12;1.40;1.00
8487;DHT22;4280;50.534;8.708;2024-01-16T14:20:16;1.40;1.00
8487;DHT22;4280;50.534;8.708;2024-01-16T14:22:43;1.40;1.00
8487;DHT22;4280;50.534;8.708;2024-01-16T14:25:10;1.50;1.00
8487;DHT22;4280;50.534;8.708;2024-01-16T14:27:40;1.60;1.00
8487;DHT22;4280;50.534;8.708;2024-01-16T14:30:14;1.60;1.00
8487;DHT22;4280;50.534;8.708;2024-01-16T14:32:42;1.60;1.00
8487;DHT22;4280;50.534;8.708;2024-01-16T14:35:10;1.50;1.00
8487;DHT22;4280;50.534;8.708;2024-01-16T14:37:38;1.50;1.00
8487;DHT22;4280;50.534;8.708;2024-01-16T14:40:06;1.50;1.00
8487;DHT22;4280;50.534;8.708;2024-01-16T14:42:38;1.50;1.00
8487;DHT22;4280;50.534;8.708;2024-01-16T14:45:05;1.40;1.00
8487;DHT22;4280;50.534;8.708;2024-01-16T14:47:32;1.40;1.00
8487;DHT22;4280;50.534;8.708;2024-01-16T14:49:58;1.50;1.00
8487;DHT22;4280;50.534;8.708;2024-01-16T14:52:24;1.50;1.00
8487;DHT22;4280;50.534;8.708;2024-01-16T14:54:49;1.50;1.00
8487;DHT22;4280;50.534;8.708;2024-01-16T14:57:16;1.40;1.00
8487;DHT22;4280;50.534;8.708;2024-01-16T14:59:42;1.40;1.00
8487;DHT22;4280;50.534;8.708;2024-01-16T15:02:08;1.40;1.00
8487;DHT22;4280;50.534;8.708;2024-01-16T15:04:41;1.30;1.00
8487;DHT22;4280;50.534;8.708;2024-01-16T15:07:09;1.30;1.00
8487;DHT22;4280;50.534;8.708;2024-01-16T15:09:35;1.30;1.00
8487;DHT22;4280;50.534;8.708;2024-01-16T15:12:06;1.30;1.00
8487;DHT22;4280;50.534;8.708;2024-01-16T15:14:35;1.30;1.00
8487;DHT22;4280;50.534;8.708;2024-01-16T15:17:02;1.20;1.00
8487;DHT22;4280;50.534;8.708;2024-01-16T15:19:28;1.30;1.00
8487;DHT22;4280;50.534;8.708;2024-01-16T15:21:54;1.20;1.00
8487;DHT22;4280;50.534;8.708;2024-01-16T15:24:20;1.20;1.00
8487;DHT22;4280;50.534;8.708;2024-01-16T15:26:55;1.20;1.00
8487;DHT22;4280;50.534;8.708;2024-01-16T15:29:23;1.10;1.00
8487;DHT22;4280;50.534;8.708;2024-01-16T15:31:49;1.00;1.00
8487;DHT22;4280;50.534;8.708;2024-01-16T15:34:17;0.90;1.00
8487;DHT22;4280;50.534;8.708;2024-01-16T15:36:44;0.90;1.00
8487;DHT22;4280;50.534;8.708;2024-01-16T15:39:10;0.90;1.00
8487;DHT22;4280;50.534;8.708;2024-01-16T15:41:36;0.70;1.00
8487;DHT22;4280;50.534;8.708;2024-01-16T15:44:02;0.70;1.00
8487;DHT22;4280;50.534;8.708;2024-01-16T15:46:28;0.60;1.00
8487;DHT22;4280;50.534;8.708;2024-01-16T15:48:54;0.60;1.00
8487;DHT22;4280;50.534;8.708;2024-01-16T15:51:22;0.60;1.00
8487;DHT22;4280;50.534;8.708;2024-01-16T15:53:48;0.50;1.00
8487;DHT22;4280;50.534;8.708;2024-01-16T15:56:13;0.40;1.00
8487;DHT22;4280;50.534;8.708;2024-01-16T15:58:39;0.40;1.00
8487;DHT22;4280;50.534;8.708;2024-01-16T16:01:06;0.30;1.00
8487;DHT22;4280;50.534;8.708;2024-01-16T16:03:32;0.10;1.00
8487;DHT22;4280;50.534;8.708;2024-01-16T16:05:57;-0.10;1.00
8487;DHT22;4280;50.534;8.708;2024-01-16T16:08:23;-0.20;1.00
8487;DHT22;4280;50.534;8.708;2024-01-16T16:10:50;-0.20;1.00
8487;DHT22;4280;50.534;8.708;2024-01-16T16:13:17;-0.20;1.00
8487;DHT22;4280;50.534;8.708;2024-01-16T16:15:42;-0.30;1.00
8487;DHT22;4280;50.534;8.708;2024-01-16T16:18:08;-0.30;1.00
8487;DHT22;4280;50.534;8.708;2024-01-16T16:20:36;-0.20;1.00
8487;DHT22;4280;50.534;8.708;2024-01-16T16:23:02;-0.20;1.00
8487;DHT22;4280;50.534;8.708;2024-01-16T16:25:27;-0.20;1.00
8487;DHT22;4280;50.534;8.708;2024-01-16T16:27:53;-0.20;1.00
8487;DHT22;4280;50.534;8.708;2024-01-16T16:30:19;-0.20;1.00
8487;DHT22;4280;50.534;8.708;2024-01-16T16:32:44;-0.20;1.00
8487;DHT22;4280;50.534;8.708;2024-01-16T16:35:10;-0.30;1.00
8487;DHT22;4280;50.534;8.708;2024-01-16T16:37:36;-0.40;1.00
8487;DHT22;4280;50.534;8.708;2024-01-16T16:40:02;-0.40;1.00
8487;DHT22;4280;50.534;8.708;2024-01-16T16:42:31;-0.50;1.00
8487;DHT22;4280;50.534;8.708;2024-01-16T16:44:57;-0.50;1.00
8487;DHT22;4280;50.534;8.708;2024-01-16T16:47:24;-0.40;1.00
8487;DHT22;4280;50.534;8.708;2024-01-16T16:49:50;-0.40;1.00
8487;DHT22;4280;50.534;8.708;2024-01-16T16:52:15;-0.50;1.00